Time;durP1;ratioP1;P1;durP2;ratioP2;P2;SDS_P1;SDS_P2;PMS_P1;PMS_P2;Temp;Humidity;BMP_temperature;BMP_pressure;BME280_temperature;BME280_humidity;BME280_pressure;Samples;Min_cycle;Max_cycle;Signal;HPM_P1;HPM_P2
2022/11/21 00:01:16;;;;;;;42.25;39.78;;;;;;;13.02;74.03;100634.28;5001115;28;102247;-53
2022/11/21 00:03:44;;;;;;;42.08;39.47;;;;;;;13.03;74.18;100635.09;4997882;28;107813;-53
2022/11/21 00:06:14;;;;;;;43.67;41.13;;;;;;;13.03;73.93;100629.63;5012010;28;102289;-53
2022/11/21 00:08:43;;;;;;;42.53;40.05;;;;;;;13.03;74.06;100622.25;5010049;28;102532;-53
2022/11/21 00:11:10;;;;;;;42.10;39.47;;;;;;;13.04;74.07;100623.06;5005210;28;102357;-53
2022/11/21 00:13:45;;;;;;;41.55;39.13;;;;;;;13.03;73.90;100638.63;5014106;28;104165;-53
2022/11/21 00:16:14;;;;;;;44.88;42.25;;;;;;;13.04;73.84;100640.25;5009296;28;102182;-53
2022/11/21 00:18:42;;;;;;;41.92;39.42;;;;;;;13.04;74.00;100640.25;5007642;28;102757;-53
2022/11/21 00:21:12;;;;;;;43.90;41.40;;;;;;;13.03;74.07;100633.19;5003809;28;102214;-53
2022/11/21 00:23:39;;;;;;;45.17;42.58;;;;;;;13.05;74.12;100636.41;5007249;28;104270;-53
2022/11/21 00:26:05;;;;;;;43.80;41.20;;;;;;;13.02;74.27;100631.56;5011790;28;102181;-53
2022/11/21 00:28:40;;;;;;;43.75;41.15;;;;;;;13.02;74.17;100631.56;4999658;28;102149;-53
2022/11/21 00:31:19;;;;;;;43.25;40.75;;;;;;;13.05;74.04;100617.28;5012265;28;102093;-53
2022/11/21 00:33:48;;;;;;;44.80;42.20;;;;;;;13.04;73.93;100615.66;5013081;28;103902;-53
2022/11/21 00:36:21;;;;;;;43.53;41.10;;;;;;;13.03;74.01;100605.84;5016281;28;102041;-53
2022/11/21 00:38:47;;;;;;;42.00;39.65;;;;;;;13.03;73.94;100616.78;5000467;28;102269;-53
2022/11/21 00:41:14;;;;;;;47.83;45.03;;;;;;;13.05;73.97;100616.47;5003528;28;102446;-53
2022/11/21 00:43:43;;;;;;;47.10;44.42;;;;;;;13.03;73.91;100627.72;5000276;28;103967;-53
2022/11/21 00:46:10;;;;;;;39.88;37.60;;;;;;;13.04;74.02;100610.22;5010054;28;102126;-53
2022/11/21 00:48:37;;;;;;;46.47;43.65;;;;;;;13.04;73.93;100596.56;4999850;28;102349;-53
2022/11/21 00:51:05;;;;;;;46.63;43.92;;;;;;;13.02;73.96;100582.38;5002079;28;102509;-54
2022/11/21 00:53:33;;;;;;;45.47;42.75;;;;;;;13.02;73.94;100584.28;5010533;28;104150;-54
2022/11/21 00:55:59;;;;;;;43.28;40.75;;;;;;;13.03;73.80;100577.72;5016024;28;103449;-53
2022/11/21 00:58:26;;;;;;;43.17;40.58;;;;;;;13.03;73.90;100575.00;5007073;28;101985;-53
2022/11/21 01:01:04;;;;;;;44.47;41.92;;;;;;;13.02;73.97;100582.38;5011232;28;102293;-53
2022/11/21 01:03:32;;;;;;;47.65;45.03;;;;;;;13.02;73.90;100576.91;5009360;28;104119;-53
2022/11/21 01:06:00;;;;;;;44.67;42.07;;;;;;;13.02;73.96;100565.16;5009782;28;102475;-53
2022/11/21 01:08:27;;;;;;;42.37;39.97;;;;;;;13.02;73.84;100571.47;5008224;28;102007;-53
2022/11/21 01:10:54;;;;;;;42.25;39.80;;;;;;;13.01;73.94;100569.81;5004012;28;102100;-53
2022/11/21 01:13:21;;;;;;;42.95;40.45;;;;;;;13.03;73.88;100572.25;5008849;28;104285;-53
2022/11/21 01:15:48;;;;;;;44.70;42.00;;;;;;;13.01;74.12;100574.47;4998474;28;102255;-53
2022/11/21 01:18:16;;;;;;;41.78;39.25;;;;;;;13.02;73.87;100571.47;5004565;28;102067;-53
2022/11/21 01:20:42;;;;;;;45.58;42.90;;;;;;;13.02;74.03;100566.00;5005852;28;104945;-53
2022/11/21 01:23:09;;;;;;;43.58;41.10;;;;;;;13.01;73.84;100561.63;4999964;28;104100;-53
2022/11/21 01:25:38;;;;;;;44.10;41.60;;;;;;;13.01;74.01;100564.34;5004678;28;102431;-53
2022/11/21 01:28:05;;;;;;;44.88;42.33;;;;;;;13.01;73.87;100564.34;4998614;28;102473;-53
2022/11/21 01:30:33;;;;;;;46.50;43.87;;;;;;;13.00;73.73;100573.66;5003004;28;103130;-54
2022/11/21 01:32:59;;;;;;;47.03;44.30;;;;;;;13.01;73.95;100575.28;5005852;28;104300;-53
2022/11/21 01:35:27;;;;;;;44.50;41.90;;;;;;;13.02;73.91;100573.34;5004128;28;102011;-54
2022/11/21 01:37:54;;;;;;;43.85;41.28;;;;;;;13.02;73.94;100579.66;5009028;28;102379;-54
2022/11/21 01:40:20;;;;;;;47.45;44.72;;;;;;;13.02;74.01;100582.38;5012551;28;102301;-54
2022/11/21 01:43:10;;;;;;;48.40;45.63;;;;;;;13.04;74.04;100595.75;5003655;28;104119;-54
2022/11/21 01:46:04;;;;;;;41.40;39.00;;;;;;;13.02;73.79;100592.47;5004679;28;104752;-53
2022/11/21 01:48:35;;;;;;;43.42;40.88;;;;;;;13.01;74.04;100597.13;4990700;28;102640;-53
2022/11/21 01:51:10;;;;;;;44.97;42.33;;;;;;;13.01;73.81;100596.31;5009243;28;102178;-53
2022/11/21 01:53:39;;;;;;;45.30;42.65;;;;;;;13.00;73.85;100587.31;4999141;28;104124;-53
2022/11/21 01:56:07;;;;;;;47.67;44.95;;;;;;;13.02;73.93;100571.47;5001380;28;102444;-53
2022/11/21 01:58:34;;;;;;;47.22;44.53;;;;;;;13.00;73.92;100565.47;5004189;28;102559;-53
2022/11/21 02:01:02;;;;;;;45.85;43.13;;;;;;;13.00;73.73;100573.66;5001786;28;102560;-54
2022/11/21 02:03:32;;;;;;;43.33;40.80;;;;;;;13.00;73.84;100584.59;4999713;28;104036;-53
2022/11/21 02:05:59;;;;;;;49.42;46.45;;;;;;;12.99;74.04;100583.78;5003370;28;102533;-53
2022/11/21 02:08:28;;;;;;;46.10;43.50;;;;;;;13.00;73.84;100584.59;5001494;28;102418;-53
2022/11/21 02:11:13;;;;;;;46.35;43.70;;;;;;;12.99;73.89;100567.38;5003327;28;102266;-53
2022/11/21 02:13:40;;;;;;;44.03;41.42;;;;;;;12.99;73.97;100561.09;5001536;28;103773;-53
2022/11/21 02:16:07;;;;;;;45.53;42.83;;;;;;;13.01;73.90;100569.00;4997832;28;102107;-53
2022/11/21 02:18:33;;;;;;;47.83;45.08;;;;;;;12.99;73.94;100567.38;5002934;28;102636;-53
2022/11/21 02:21:09;;;;;;;48.90;46.08;;;;;;;13.01;73.84;100549.88;5001782;28;102261;-53
2022/11/21 02:23:48;;;;;;;49.15;46.22;;;;;;;13.01;73.90;100542.50;4997804;28;104284;-53
2022/11/21 02:26:16;;;;;;;47.20;44.53;;;;;;;13.00;73.83;100546.34;4997540;28;102595;-54
2022/11/21 02:28:44;;;;;;;48.80;45.92;;;;;;;12.99;73.95;100545.53;5000763;28;102472;-54
2022/11/21 02:31:11;;;;;;;46.60;44.00;;;;;;;12.99;73.84;100529.13;5006793;28;102783;-53
2022/11/21 02:33:39;;;;;;;47.90;45.17;;;;;;;13.00;73.93;100538.13;5002018;28;104216;-54
2022/11/21 02:36:32;;;;;;;47.78;45.00;;;;;;;13.00;73.91;100529.94;5004580;28;103073;-53
2022/11/21 02:38:59;;;;;;;46.17;43.50;;;;;;;13.00;73.82;100527.22;5004273;28;102637;-53
2022/11/21 02:41:29;;;;;;;48.80;45.92;;;;;;;13.01;73.81;100525.28;5000839;28;102756;-53
2022/11/21 02:44:01;;;;;;;45.08;42.45;;;;;;;12.98;73.86;100524.78;4998955;28;103946;-53
2022/11/21 02:46:28;;;;;;;45.83;43.13;;;;;;;13.00;73.80;100540.88;5001325;28;102638;-53
2022/11/21 02:48:56;;;;;;;47.97;45.00;;;;;;;12.99;73.95;100555.66;5005422;28;102357;-53
2022/11/21 02:51:22;;;;;;;46.95;44.20;;;;;;;13.00;73.87;100557.25;5004071;28;102060;-53
2022/11/21 02:53:52;;;;;;;48.03;45.20;;;;;;;12.98;73.92;100552.09;5003748;28;103890;-53
2022/11/21 02:56:19;;;;;;;44.17;41.55;;;;;;;12.98;73.92;100541.19;4999915;28;102267;-53
2022/11/21 02:58:47;;;;;;;50.67;47.67;;;;;;;13.01;73.80;100541.69;4998395;28;102576;-53
2022/11/21 03:01:13;;;;;;;46.35;43.60;;;;;;;13.00;73.83;100535.41;5001336;28;102253;-53
2022/11/21 03:03:42;;;;;;;48.35;45.63;;;;;;;12.98;73.97;100532.16;5004383;28;104167;-53
2022/11/21 03:06:09;;;;;;;50.75;47.72;;;;;;;12.99;74.02;100528.31;4998810;28;102356;-53
2022/11/21 03:08:35;;;;;;;50.90;47.97;;;;;;;12.97;73.83;100527.78;4995477;28;102150;-53
2022/11/21 03:11:02;;;;;;;50.10;47.10;;;;;;;12.99;73.79;100528.31;4999843;28;102175;-54
2022/11/21 03:13:28;;;;;;;49.97;47.03;;;;;;;12.97;73.90;100516.88;5000764;28;103921;-53
2022/11/21 03:15:58;;;;;;;49.08;46.20;;;;;;;12.98;73.74;100521.22;4997779;28;102536;-53
2022/11/21 03:18:24;;;;;;;48.42;45.60;;;;;;;12.97;73.88;100514.94;5000280;28;102671;-53
2022/11/21 03:20:51;;;;;;;48.83;45.95;;;;;;;12.99;73.69;100528.31;5008093;28;102438;-53
2022/11/21 03:23:19;;;;;;;47.17;44.33;;;;;;;12.97;73.71;100527.78;4993819;28;103719;-53
2022/11/21 03:25:45;;;;;;;50.25;47.28;;;;;;;12.96;73.68;100515.25;5005784;28;102109;-53
2022/11/21 03:28:11;;;;;;;50.50;47.47;;;;;;;12.97;73.61;100514.13;4997371;28;102314;-53
2022/11/21 03:30:38;;;;;;;48.95;46.05;;;;;;;12.98;73.55;100534.88;4997700;28;102501;-53
2022/11/21 03:33:06;;;;;;;51.72;48.47;;;;;;;12.98;73.88;100543.06;5000509;28;103981;-53
2022/11/21 03:35:33;;;;;;;51.17;48.17;;;;;;;12.98;73.62;100548.53;5014026;28;102004;-53
2022/11/21 03:37:59;;;;;;;46.97;44.17;;;;;;;12.97;73.67;100545.00;5001711;28;102579;-53
2022/11/21 03:40:26;;;;;;;48.00;45.17;;;;;;;12.97;73.74;100557.84;5004876;28;102283;-53
2022/11/21 03:42:52;;;;;;;50.13;47.22;;;;;;;12.97;73.67;100552.38;5008656;28;104021;-53
2022/11/21 03:45:19;;;;;;;51.00;48.00;;;;;;;12.98;73.72;100537.59;4999011;28;102620;-53
2022/11/21 03:47:46;;;;;;;47.33;44.40;;;;;;;12.98;73.79;100521.22;4999226;28;102477;-53
2022/11/21 03:50:17;;;;;;;52.22;49.17;;;;;;;12.97;73.56;100512.22;4999747;28;102225;-53
2022/11/21 03:52:46;;;;;;;53.38;50.28;;;;;;;12.95;73.66;100510.91;5010070;28;104285;-53
2022/11/21 03:55:14;;;;;;;50.20;47.30;;;;;;;12.96;73.65;100507.06;4998844;28;102194;-53
2022/11/21 03:57:40;;;;;;;50.70;47.70;;;;;;;12.95;73.67;100502.69;5000165;28;102172;-54
2022/11/21 04:00:08;;;;;;;51.22;48.30;;;;;;;12.95;73.60;100497.25;5005716;28;102309;-53
2022/11/21 04:02:35;;;;;;;51.22;48.15;;;;;;;12.95;73.74;100497.25;5001005;28;104028;-53
2022/11/21 04:05:01;;;;;;;50.70;47.75;;;;;;;12.97;73.59;100503.22;5011414;28;102052;-53
2022/11/21 04:07:29;;;;;;;52.72;49.55;;;;;;;12.96;73.65;100486.00;5008011;28;102652;-53
2022/11/21 04:09:56;;;;;;;53.47;50.25;;;;;;;12.95;73.46;100499.97;5014186;28;102185;-53
2022/11/21 04:12:23;;;;;;;49.42;46.42;;;;;;;12.95;73.61;100489.03;4997319;28;103903;-53
2022/11/21 04:14:50;;;;;;;49.05;46.20;;;;;;;12.93;73.92;100492.06;5003586;28;102291;-53
2022/11/21 04:17:16;;;;;;;46.45;43.65;;;;;;;12.94;73.68;100503.78;5008728;28;103671;-54
2022/11/21 04:19:42;;;;;;;53.38;50.22;;;;;;;12.94;73.71;100488.22;5001879;28;102169;-54
2022/11/21 04:22:09;;;;;;;57.08;53.53;;;;;;;12.93;73.50;100492.06;5009571;28;103931;-54
2022/11/21 04:24:37;;;;;;;52.53;49.47;;;;;;;12.94;73.52;100487.41;5009823;28;102338;-54
2022/11/21 04:27:04;;;;;;;53.10;49.95;;;;;;;12.93;73.58;100486.59;5001488;28;102313;-54
2022/11/21 04:29:30;;;;;;;55.42;52.17;;;;;;;12.93;73.57;100496.72;5001476;28;102277;-53
2022/11/21 04:31:56;;;;;;;50.65;47.67;;;;;;;12.93;73.49;100496.72;5007245;28;103963;-53
2022/11/21 04:34:23;;;;;;;52.50;49.40;;;;;;;12.95;73.60;100499.97;5001164;28;102440;-53
2022/11/21 04:36:49;;;;;;;50.05;47.13;;;;;;;12.94;73.47;100495.59;5009135;28;102404;-54
2022/11/21 04:39:16;;;;;;;48.40;45.47;;;;;;;12.94;73.48;100471.00;5006173;28;102210;-53
2022/11/21 04:41:44;;;;;;;51.30;48.33;;;;;;;12.94;73.43;100454.63;5006788;28;103885;-53
2022/11/21 04:44:11;;;;;;;49.53;46.42;;;;;;;12.92;73.51;100445.94;4999187;28;102457;-53
2022/11/21 04:46:37;;;;;;;49.65;46.72;;;;;;;12.92;73.60;100448.66;4998173;28;102526;-53
2022/11/21 04:49:04;;;;;;;52.20;49.15;;;;;;;12.92;73.59;100456.84;5002440;28;102531;-53
2022/11/21 04:51:31;;;;;;;52.08;49.08;;;;;;;12.90;73.60;100448.13;5003037;28;104069;-53
2022/11/21 04:53:57;;;;;;;54.90;51.70;;;;;;;12.90;73.50;100446.19;5003104;28;102452;-53
2022/11/21 04:56:24;;;;;;;54.42;51.15;;;;;;;12.90;73.55;100459.06;5001928;28;102169;-53
2022/11/21 04:58:52;;;;;;;50.28;47.30;;;;;;;12.90;73.26;100454.41;5008528;28;102608;-53
2022/11/21 05:01:18;;;;;;;54.05;50.92;;;;;;;12.90;73.50;100461.78;4998187;28;104057;-53
2022/11/21 05:03:45;;;;;;;53.00;49.90;;;;;;;12.91;73.41;100463.41;4999201;28;102627;-53
2022/11/21 05:06:11;;;;;;;52.92;49.85;;;;;;;12.90;73.54;100454.41;5009355;28;102575;-53
2022/11/21 05:08:38;;;;;;;55.28;52.05;;;;;;;12.90;73.43;100448.94;5012072;28;102466;-53
2022/11/21 05:13:53;;;;;;;49.60;46.65;;;;;;;12.88;73.39;100428.50;5001004;28;102457;-53
2022/11/21 05:16:20;;;;;;;52.15;49.03;;;;;;;12.87;73.31;100399.56;4999356;28;102319;-53
2022/11/21 05:18:46;;;;;;;51.58;48.58;;;;;;;12.85;73.59;100386.19;5002988;28;102504;-53
2022/11/21 05:21:14;;;;;;;49.75;46.83;;;;;;;12.84;73.37;100373.66;5002167;28;103735;-53
2022/11/21 05:23:42;;;;;;;53.85;50.72;;;;;;;12.83;73.63;100374.75;4996705;28;102549;-53
2022/11/21 05:26:08;;;;;;;50.72;47.75;;;;;;;12.83;73.56;100385.66;4997767;28;102398;-53
2022/11/21 05:28:36;;;;;;;51.45;48.45;;;;;;;12.85;73.25;100418.16;5009054;28;102390;-53
2022/11/21 05:31:04;;;;;;;55.00;51.80;;;;;;;12.84;73.48;100413.78;5003749;28;103943;-53
2022/11/21 05:33:31;;;;;;;51.55;48.50;;;;;;;12.84;73.43;100378.28;5004182;28;102960;-53
2022/11/21 05:35:57;;;;;;;49.33;46.45;;;;;;;12.84;73.41;100372.81;5005860;28;103021;-53
2022/11/21 05:38:24;;;;;;;55.85;52.58;;;;;;;12.83;73.47;100395.78;4999683;28;102575;-53
2022/11/21 05:40:50;;;;;;;54.25;51.10;;;;;;;12.82;73.50;100424.22;4995369;28;104345;-53
2022/11/21 05:46:04;;;;;;;57.83;54.47;;;;;;;12.84;73.39;100400.97;4996699;28;101960;-53
2022/11/21 05:48:33;;;;;;;57.33;53.83;;;;;;;12.83;73.28;100382.13;5000507;28;102515;-53
2022/11/21 05:50:59;;;;;;;47.88;45.08;;;;;;;12.82;73.59;100377.78;4995841;28;104103;-53
2022/11/21 05:53:26;;;;;;;49.92;46.95;;;;;;;12.81;73.48;100374.25;4997538;28;102129;-53
2022/11/21 05:55:52;;;;;;;52.33;49.22;;;;;;;12.81;73.36;100376.16;5009016;28;102922;-54
2022/11/21 05:58:19;;;;;;;51.67;48.60;;;;;;;12.79;73.40;100365.53;5000129;28;102179;-53
2022/11/21 06:00:45;;;;;;;50.78;47.72;;;;;;;12.81;73.38;100373.44;4996453;28;104029;-53
2022/11/21 06:03:31;;;;;;;55.25;52.00;;;;;;;12.81;73.54;100393.38;4997166;28;102381;-53
2022/11/21 06:06:03;;;;;;;52.70;49.50;;;;;;;12.83;73.31;100393.06;5009012;28;103439;-53
2022/11/21 06:08:36;;;;;;;50.88;47.88;;;;;;;12.85;73.33;100390.84;5004795;28;102607;-54
2022/11/21 06:11:03;;;;;;;58.50;55.03;;;;;;;12.85;73.17;100386.19;5004602;28;104160;-53
2022/11/21 06:13:32;;;;;;;56.67;53.28;;;;;;;12.85;73.35;100404.50;5005002;28;102466;-53
2022/11/21 06:16:00;;;;;;;52.72;49.38;;;;;;;12.86;73.25;100381.53;4996083;28;105458;-53
2022/11/21 06:18:30;;;;;;;56.05;52.65;;;;;;;12.84;73.26;100367.38;5004469;28;102810;-53
2022/11/21 06:21:00;;;;;;;57.15;53.75;;;;;;;12.82;73.46;100343.09;5002585;28;103939;-53
2022/11/21 06:23:27;;;;;;;55.95;52.60;;;;;;;12.84;73.41;100353.72;5002985;28;102724;-53
2022/11/21 06:25:56;;;;;;;57.05;53.65;;;;;;;12.83;73.18;100332.97;5011289;28;102166;-53
2022/11/21 06:28:22;;;;;;;51.92;48.83;;;;;;;12.83;73.69;100330.25;5006515;28;102240;-53
2022/11/21 06:30:50;;;;;;;48.15;45.22;;;;;;;12.82;73.52;100320.44;5001046;28;103955;-53
2022/11/21 06:33:18;;;;;;;52.70;49.40;;;;;;;12.82;73.40;100306.78;5009867;28;102398;-53
2022/11/21 06:35:47;;;;;;;53.97;50.73;;;;;;;12.82;73.41;100309.50;5003417;28;102205;-53
2022/11/21 06:38:17;;;;;;;51.22;48.13;;;;;;;12.83;73.33;100313.84;4998935;28;102919;-53
2022/11/21 06:40:43;;;;;;;53.00;49.83;;;;;;;12.81;73.46;100313.38;5000263;28;104719;-54
2022/11/21 06:43:10;;;;;;;51.10;47.88;;;;;;;12.82;73.38;100310.31;5002594;28;102177;-53
2022/11/21 06:45:36;;;;;;;53.80;50.50;;;;;;;12.82;73.27;100288.47;5006377;28;102215;-53
2022/11/21 06:48:03;;;;;;;51.38;48.28;;;;;;;12.80;73.28;100285.22;5007866;28;102349;-53
2022/11/21 06:50:30;;;;;;;54.60;51.38;;;;;;;12.81;73.25;100281.41;5000952;28;104135;-53
2022/11/21 06:52:59;;;;;;;53.88;50.55;;;;;;;12.83;73.22;100267.44;4996593;28;102000;-53
2022/11/21 06:55:26;;;;;;;51.93;48.70;;;;;;;12.82;73.29;100258.44;5003602;28;102814;-53
2022/11/21 06:57:55;;;;;;;52.65;49.40;;;;;;;12.81;73.36;100256.00;5002827;28;102341;-53
2022/11/21 07:00:23;;;;;;;53.80;50.40;;;;;;;12.82;73.36;100249.44;5008834;28;104525;-53
2022/11/21 07:02:50;;;;;;;53.20;49.90;;;;;;;12.81;73.34;100258.75;5003831;28;102148;-53
2022/11/21 07:05:16;;;;;;;52.63;49.38;;;;;;;12.81;73.29;100258.75;5008951;28;102924;-53
2022/11/21 07:07:43;;;;;;;50.67;47.58;;;;;;;12.79;73.41;100239.91;5001566;28;102184;-53
2022/11/21 07:10:11;;;;;;;52.92;49.63;;;;;;;12.80;73.30;100251.63;5005224;28;103892;-53
2022/11/21 07:15:23;;;;;;;53.92;50.75;;;;;;;12.75;73.22;100201.47;5006052;28;102298;-53
2022/11/21 07:17:49;;;;;;;53.83;50.63;;;;;;;12.75;73.31;100201.47;5010132;28;102195;-53
2022/11/21 07:20:16;;;;;;;52.92;49.70;;;;;;;12.75;73.53;100206.94;5001705;28;104037;-53
2022/11/21 07:22:43;;;;;;;52.83;49.63;;;;;;;12.78;73.54;100212.91;4999243;28;102149;-53
2022/11/21 07:25:11;;;;;;;52.22;49.13;;;;;;;12.81;73.32;100212.31;4998476;28;102783;-53
2022/11/21 07:27:37;;;;;;;53.42;50.22;;;;;;;12.78;73.31;100193.81;5004075;28;102138;-53
2022/11/21 07:30:04;;;;;;;51.88;48.67;;;;;;;12.77;73.52;100181.28;5004601;28;103962;-53
2022/11/21 07:32:31;;;;;;;52.42;49.22;;;;;;;12.75;73.32;100196.00;5008010;28;102259;-53
2022/11/21 07:34:58;;;;;;;52.90;49.72;;;;;;;12.80;73.47;100207.94;5000915;28;102498;-53
2022/11/21 07:37:24;;;;;;;52.42;49.38;;;;;;;12.80;73.47;100186.09;4996544;28;102227;-53
2022/11/21 07:39:51;;;;;;;54.63;51.33;;;;;;;12.79;73.22;100168.09;4998948;28;103868;-53
2022/11/21 07:42:19;;;;;;;54.35;51.08;;;;;;;12.75;73.52;100167.91;4994814;28;102422;-53
2022/11/21 07:44:46;;;;;;;53.80;50.60;;;;;;;12.77;73.30;100194.91;4997774;28;102398;-53
2022/11/21 07:47:13;;;;;;;49.85;46.85;;;;;;;12.79;73.28;100173.56;4995346;28;102865;-53
2022/11/21 07:49:40;;;;;;;52.65;49.50;;;;;;;12.79;73.21;100181.75;4997034;28;104114;-53
2022/11/21 07:52:06;;;;;;;49.15;46.17;;;;;;;12.77;73.48;100173.06;5002612;28;102247;-53
2022/11/21 07:54:33;;;;;;;49.15;46.05;;;;;;;12.77;73.23;100164.88;5007701;28;102779;-53
2022/11/21 07:56:59;;;;;;;53.60;50.55;;;;;;;12.77;73.60;100159.44;5007384;28;102113;-53
2022/11/21 07:59:28;;;;;;;50.92;47.92;;;;;;;12.79;73.44;100157.19;5006174;28;103898;-53
2022/11/21 08:01:54;;;;;;;54.45;51.25;;;;;;;12.80;73.40;100158.81;5010115;28;102194;-53
2022/11/21 08:04:21;;;;;;;52.78;49.67;;;;;;;12.79;73.30;100151.72;5003900;28;102567;-53
2022/11/21 08:06:47;;;;;;;49.53;46.50;;;;;;;12.79;73.55;100140.81;5002162;28;102719;-53
2022/11/21 08:09:14;;;;;;;52.03;48.92;;;;;;;12.77;73.49;100132.94;5002500;28;103993;-53
2022/11/21 08:11:41;;;;;;;52.97;49.88;;;;;;;12.78;73.52;100122.81;5000558;28;102631;-53
2022/11/21 08:14:07;;;;;;;50.50;47.50;;;;;;;12.79;73.53;100130.69;4999056;28;102339;-54
2022/11/21 08:16:35;;;;;;;49.50;46.55;;;;;;;12.78;73.46;100139.19;4995289;28;102277;-54
2022/11/21 08:19:03;;;;;;;49.63;46.47;;;;;;;12.79;73.51;100121.69;4990821;28;103881;-53
2022/11/21 08:21:30;;;;;;;48.75;45.80;;;;;;;12.80;73.49;100117.84;4996323;28;102055;-53
2022/11/21 08:23:56;;;;;;;49.42;46.53;;;;;;;12.79;73.64;100108.84;4995130;28;102310;-53
2022/11/21 08:26:23;;;;;;;47.72;45.00;;;;;;;12.78;73.57;100112.69;4996803;28;102204;-53
2022/11/21 08:28:49;;;;;;;46.78;44.03;;;;;;;12.79;73.67;100091.66;5007656;28;104000;-53
2022/11/21 08:31:16;;;;;;;49.83;46.92;;;;;;;12.79;73.64;100097.13;4998324;28;102336;-53
2022/11/21 08:33:44;;;;;;;48.55;45.63;;;;;;;12.79;73.77;100089.72;5000670;28;102122;-53
2022/11/21 08:36:10;;;;;;;50.53;47.42;;;;;;;12.80;73.70;100088.63;5005909;28;102534;-53
2022/11/21 08:38:37;;;;;;;49.25;46.45;;;;;;;12.79;73.79;100080.72;5008522;28;103956;-53
2022/11/21 08:43:48;;;;;;;48.72;45.90;;;;;;;12.78;73.96;100074.47;4996429;28;102096;-53
2022/11/21 08:46:16;;;;;;;47.83;44.95;;;;;;;12.78;73.98;100068.19;5010088;28;102395;-53
2022/11/21 08:48:44;;;;;;;49.50;46.65;;;;;;;12.77;74.01;100063.88;4998761;28;104643;-53
2022/11/21 08:51:10;;;;;;;46.33;43.70;;;;;;;12.78;74.08;100051.81;5007223;28;102051;-53
2022/11/21 08:53:38;;;;;;;47.67;44.95;;;;;;;12.78;74.19;100052.63;5009744;28;102386;-53
2022/11/21 08:56:04;;;;;;;47.08;44.25;;;;;;;12.77;73.99;100048.28;5014769;28;102570;-53
2022/11/21 08:58:31;;;;;;;44.60;42.13;;;;;;;12.78;74.03;100040.91;5002766;28;104125;-53
2022/11/21 09:00:58;;;;;;;47.83;45.05;;;;;;;12.78;74.15;100032.72;4995336;28;102395;-53
2022/11/21 09:03:24;;;;;;;46.35;43.63;;;;;;;12.75;74.29;100037.66;4994098;28;102619;-54
2022/11/21 09:05:55;;;;;;;45.50;42.83;;;;;;;12.78;74.21;100040.91;4995502;28;102501;-53
2022/11/21 09:08:21;;;;;;;48.30;45.50;;;;;;;12.79;74.55;100037.03;4993429;28;103909;-53
2022/11/21 09:10:48;;;;;;;45.58;42.97;;;;;;;12.81;74.30;100045.75;5002227;28;102145;-53
2022/11/21 09:13:14;;;;;;;43.15;40.67;;;;;;;12.82;74.14;100030.97;5002141;28;101961;-53
2022/11/21 09:18:26;;;;;;;42.65;40.05;;;;;;;12.81;74.47;100007.53;5013390;28;104124;-53
2022/11/21 09:20:55;;;;;;;44.28;41.55;;;;;;;12.81;74.54;100007.53;5012937;28;102471;-53
2022/11/21 09:23:21;;;;;;;41.33;38.93;;;;;;;12.81;74.45;99980.22;5013864;28;102252;-54
2022/11/21 09:25:51;;;;;;;43.58;40.97;;;;;;;12.81;74.52;99988.41;5014292;28;102378;-53
2022/11/21 09:28:17;;;;;;;45.10;42.38;;;;;;;12.81;74.73;99980.22;4996762;28;104128;-53
2022/11/21 09:30:44;;;;;;;42.50;39.95;;;;;;;12.82;74.50;99960.78;5009639;28;102649;-53
2022/11/21 09:33:12;;;;;;;42.25;39.90;;;;;;;12.81;74.51;99950.19;5004580;28;102502;-53
2022/11/21 09:35:40;;;;;;;41.33;39.00;;;;;;;12.82;74.53;99930.75;5005763;28;102185;-53
2022/11/21 09:38:08;;;;;;;44.08;41.38;;;;;;;12.81;74.87;99915.50;4997311;28;104274;-53
2022/11/21 09:40:35;;;;;;;41.38;38.90;;;;;;;12.82;74.91;99921.75;5001170;28;102214;-54
2022/11/21 09:43:15;;;;;;;40.85;38.25;;;;;;;12.82;74.80;99910.84;4993492;28;102520;-53
2022/11/21 09:45:46;;;;;;;40.65;37.97;;;;;;;12.84;74.89;99903.13;5001692;28;101962;-53
2022/11/21 09:48:18;;;;;;;40.13;37.80;;;;;;;12.85;75.11;99921.16;4999749;28;104193;-53
2022/11/21 09:50:49;;;;;;;39.72;37.33;;;;;;;12.87;75.00;99913.44;5000839;28;102465;-53
2022/11/21 09:53:21;;;;;;;39.78;37.08;;;;;;;12.88;74.95;99909.63;4994589;28;101977;-53
2022/11/21 09:55:54;;;;;;;39.33;36.95;;;;;;;12.90;75.13;99907.38;4999512;28;102061;-53
2022/11/21 09:58:27;;;;;;;36.17;33.88;;;;;;;12.89;75.22;99898.38;4996506;28;103804;-53
2022/11/21 10:00:54;;;;;;;36.58;34.30;;;;;;;12.88;75.04;99871.41;5007561;28;102421;-53
2022/11/21 10:03:24;;;;;;;37.83;35.55;;;;;;;12.89;75.50;99870.28;5000582;28;102457;-53
2022/11/21 10:05:55;;;;;;;37.42;35.00;;;;;;;12.91;75.43;99859.84;4999258;28;102552;-53
2022/11/21 10:08:32;;;;;;;35.33;33.08;;;;;;;12.92;75.45;99856.81;5000162;28;104045;-53
2022/11/21 10:11:11;;;;;;;38.35;35.78;;;;;;;12.91;75.28;99843.44;5000503;28;102163;-53
2022/11/21 10:13:51;;;;;;;34.22;32.00;;;;;;;12.93;75.54;99839.31;4998445;28;102497;-53
2022/11/21 10:16:28;;;;;;;34.67;32.08;;;;;;;12.96;76.06;99830.50;4998445;28;103734;-53
2022/11/21 10:19:26;;;;;;;39.38;36.70;;;;;;;12.96;75.89;99832.44;4996349;28;103937;-53
2022/11/21 10:22:18;;;;;;;34.25;31.85;;;;;;;12.97;76.10;99839.50;4997262;28;102199;-53
2022/11/21 10:24:54;;;;;;;35.42;33.03;;;;;;;12.99;76.08;99834.53;4996696;28;102661;-53
2022/11/21 10:27:29;;;;;;;32.78;30.50;;;;;;;13.01;76.05;99826.03;5003054;28;102511;-53
2022/11/21 10:30:01;;;;;;;35.28;32.80;;;;;;;13.02;76.30;99828.47;4999633;28;104005;-53
2022/11/21 10:32:34;;;;;;;35.25;32.67;;;;;;;13.03;76.61;99819.16;4996168;28;102133;-53
2022/11/21 10:35:12;;;;;;;33.05;30.35;;;;;;;13.02;76.46;99812.06;4997308;28;102375;-53
2022/11/21 10:37:41;;;;;;;34.30;31.52;;;;;;;13.03;76.57;99802.75;4997832;28;102293;-53
2022/11/21 10:40:21;;;;;;;29.40;27.33;;;;;;;13.05;77.17;99805.16;5001688;28;104526;-53
2022/11/21 10:42:54;;;;;;;32.13;29.10;;;;;;;13.03;76.70;99797.28;5001194;28;102164;-53
2022/11/21 10:45:22;;;;;;;27.50;25.33;;;;;;;13.06;77.49;99785.75;4999687;28;102213;-53
2022/11/21 10:47:50;;;;;;;29.45;26.95;;;;;;;13.05;77.18;99778.66;4999878;28;102888;-53
2022/11/21 10:50:32;;;;;;;28.75;25.80;;;;;;;13.07;77.87;99770.97;5001980;28;104386;-53
2022/11/21 10:56:00;;;;;;;28.15;22.30;;;;;;;13.07;77.20;99754.59;5014059;28;102273;-53
2022/11/21 10:58:35;;;;;;;26.88;24.10;;;;;;;13.10;77.78;99756.69;4997524;28;102196;-54
2022/11/21 11:01:02;;;;;;;27.10;24.80;;;;;;;13.10;77.25;99758.63;4996559;28;104145;-53
2022/11/21 11:03:30;;;;;;;25.67;23.30;;;;;;;13.10;77.71;99743.03;5001508;28;102200;-53
2022/11/21 11:05:58;;;;;;;26.67;24.00;;;;;;;13.10;77.64;99743.03;5001550;28;102370;-53
2022/11/21 11:08:27;;;;;;;27.45;24.88;;;;;;;13.12;77.64;99740.78;4997312;28;102863;-53
2022/11/21 11:11:04;;;;;;;25.27;22.80;;;;;;;13.11;77.82;99744.63;4996916;28;104229;-53
2022/11/21 11:13:35;;;;;;;25.10;22.63;;;;;;;13.13;78.78;99747.06;5003601;28;102465;-53
2022/11/21 11:16:06;;;;;;;29.60;22.55;;;;;;;13.11;78.82;99739.19;5003578;28;102452;-53
2022/11/21 11:18:36;;;;;;;28.55;20.10;;;;;;;13.13;79.34;99736.16;5006479;28;102211;-53
2022/11/21 11:21:19;;;;;;;23.63;20.48;;;;;;;13.15;79.66;99729.22;5005025;28;104016;-53
2022/11/21 11:23:47;;;;;;;26.63;19.15;;;;;;;13.13;79.57;99731.50;5000033;28;101836;-53
2022/11/21 11:26:21;;;;;;;24.27;18.42;;;;;;;13.13;78.58;99731.50;5010432;28;101942;-53